sensor_id;sensor_type;location;lat;lon;timestamp;P1;durP1;ratioP1;P2;durP2;ratioP2
55013;SDS011;40916;51.632;5.552;2022-08-21T00:04:37;4.6;;;8.7;;
55013;SDS011;40916;51.632;5.552;2022-08-21T00:09:37;4.6;;;12.6;;
55013;SDS011;40916;51.632;5.552;2022-08-21T00:14:37;4.4;;;10.5;;
55013;SDS011;40916;51.632;5.552;2022-08-21T00:19:37;4.8;;;9.7;;
55013;SDS011;40916;51.632;5.552;2022-08-21T00:24:37;4.7;;;7.6;;
55013;SDS011;40916;51.632;5.552;2022-08-21T00:29:37;4.5;;;9.5;;
55013;SDS011;40916;51.632;5.552;2022-08-21T00:34:37;4.8;;;9.3;;
55013;SDS011;40916;51.632;5.552;2022-08-21T00:39:37;4.9;;;10.6;;
55013;SDS011;40916;51.632;5.552;2022-08-21T00:44:37;4.6;;;9.8;;
55013;SDS011;40916;51.632;5.552;2022-08-21T00:49:37;4.4;;;7;;
55013;SDS011;40916;51.632;5.552;2022-08-21T00:54:37;5.1;;;8.6;;
55013;SDS011;40916;51.632;5.552;2022-08-21T00:59:37;4.4;;;9.4;;
55013;SDS011;40916;51.632;5.552;2022-08-21T01:04:37;4.7;;;8.9;;
55013;SDS011;40916;51.632;5.552;2022-08-21T01:09:37;4.6;;;16.2;;
55013;SDS011;40916;51.632;5.552;2022-08-21T01:14:37;4.2;;;9.4;;
55013;SDS011;40916;51.632;5.552;2022-08-21T01:19:37;4.2;;;10.8;;
55013;SDS011;40916;51.632;5.552;2022-08-21T01:24:37;4.4;;;10.9;;
55013;SDS011;40916;51.632;5.552;2022-08-21T01:29:37;4.7;;;9.8;;
55013;SDS011;40916;51.632;5.552;2022-08-21T01:34:38;4.2;;;9.1;;
55013;SDS011;40916;51.632;5.552;2022-08-21T01:39:37;4.4;;;7.2;;
55013;SDS011;40916;51.632;5.552;2022-08-21T01:44:37;5.3;;;14.9;;
55013;SDS011;40916;51.632;5.552;2022-08-21T01:49:37;4.7;;;8.9;;
55013;SDS011;40916;51.632;5.552;2022-08-21T01:54:37;4.5;;;7.6;;
55013;SDS011;40916;51.632;5.552;2022-08-21T01:59:37;4.9;;;8.6;;
55013;SDS011;40916;51.632;5.552;2022-08-21T02:04:37;4.5;;;7.8;;
55013;SDS011;40916;51.632;5.552;2022-08-21T02:09:37;4.9;;;9;;
55013;SDS011;40916;51.632;5.552;2022-08-21T02:14:37;4.8;;;9.6;;
55013;SDS011;40916;51.632;5.552;2022-08-21T02:19:37;5.6;;;9;;
55013;SDS011;40916;51.632;5.552;2022-08-21T02:24:37;5;;;10.3;;
55013;SDS011;40916;51.632;5.552;2022-08-21T02:29:37;5.1;;;8.4;;
55013;SDS011;40916;51.632;5.552;2022-08-21T02:34:37;4.8;;;9.9;;
55013;SDS011;40916;51.632;5.552;2022-08-21T02:39:37;4.9;;;8.6;;
55013;SDS011;40916;51.632;5.552;2022-08-21T02:44:37;4.9;;;9.6;;
55013;SDS011;40916;51.632;5.552;2022-08-21T02:49:37;5.3;;;10.7;;
55013;SDS011;40916;51.632;5.552;2022-08-21T02:54:37;4.8;;;8.5;;
55013;SDS011;40916;51.632;5.552;2022-08-21T02:59:37;5.2;;;8;;
55013;SDS011;40916;51.632;5.552;2022-08-21T03:04:37;5.5;;;8.1;;
55013;SDS011;40916;51.632;5.552;2022-08-21T03:09:37;5.4;;;8.2;;
55013;SDS011;40916;51.632;5.552;2022-08-21T03:14:37;5.8;;;8.6;;
55013;SDS011;40916;51.632;5.552;2022-08-21T03:19:37;4.8;;;9.3;;
55013;SDS011;40916;51.632;5.552;2022-08-21T03:24:37;4.8;;;10.8;;
55013;SDS011;40916;51.632;5.552;2022-08-21T03:29:37;5.4;;;9.5;;
55013;SDS011;40916;51.632;5.552;2022-08-21T03:34:37;4.4;;;7.3;;
55013;SDS011;40916;51.632;5.552;2022-08-21T03:39:37;5.5;;;15.4;;
55013;SDS011;40916;51.632;5.552;2022-08-21T03:44:37;4.9;;;9.4;;
55013;SDS011;40916;51.632;5.552;2022-08-21T03:49:37;4.8;;;8.4;;
55013;SDS011;40916;51.632;5.552;2022-08-21T03:54:37;5.1;;;10.4;;
55013;SDS011;40916;51.632;5.552;2022-08-21T03:59:37;4.9;;;10.3;;
55013;SDS011;40916;51.632;5.552;2022-08-21T04:04:37;5.4;;;11.1;;
55013;SDS011;40916;51.632;5.552;2022-08-21T04:09:37;4.9;;;8.3;;
55013;SDS011;40916;51.632;5.552;2022-08-21T04:14:37;6;;;11.9;;
55013;SDS011;40916;51.632;5.552;2022-08-21T04:19:37;5.8;;;9.6;;
55013;SDS011;40916;51.632;5.552;2022-08-21T04:24:37;5.8;;;9.3;;
55013;SDS011;40916;51.632;5.552;2022-08-21T04:29:37;6.2;;;10.5;;
55013;SDS011;40916;51.632;5.552;2022-08-21T04:34:37;6;;;10.6;;
55013;SDS011;40916;51.632;5.552;2022-08-21T04:39:37;6;;;10.5;;
55013;SDS011;40916;51.632;5.552;2022-08-21T04:44:37;5.7;;;10.3;;
55013;SDS011;40916;51.632;5.552;2022-08-21T04:49:37;5.8;;;10.1;;
55013;SDS011;40916;51.632;5.552;2022-08-21T04:54:37;5.5;;;7.9;;
55013;SDS011;40916;51.632;5.552;2022-08-21T04:59:38;6;;;13.9;;
55013;SDS011;40916;51.632;5.552;2022-08-21T05:04:41;6.7;;;10.7;;
55013;SDS011;40916;51.632;5.552;2022-08-21T05:09:37;6.8;;;13.4;;
55013;SDS011;40916;51.632;5.552;2022-08-21T05:14:37;6.7;;;11.2;;
55013;SDS011;40916;51.632;5.552;2022-08-21T05:19:37;6.6;;;15.5;;
55013;SDS011;40916;51.632;5.552;2022-08-21T05:24:37;6.5;;;12.1;;
55013;SDS011;40916;51.632;5.552;2022-08-21T05:29:37;7.1;;;12.3;;
55013;SDS011;40916;51.632;5.552;2022-08-21T05:34:37;6.7;;;16.4;;
55013;SDS011;40916;51.632;5.552;2022-08-21T05:39:37;6.4;;;15.6;;
55013;SDS011;40916;51.632;5.552;2022-08-21T05:44:36;6.4;;;12.4;;
55013;SDS011;40916;51.632;5.552;2022-08-21T05:49:37;5.9;;;10.7;;
55013;SDS011;40916;51.632;5.552;2022-08-21T05:54:37;6.4;;;12.2;;
55013;SDS011;40916;51.632;5.552;2022-08-21T05:59:37;7.1;;;18.7;;
55013;SDS011;40916;51.632;5.552;2022-08-21T06:04:37;6.1;;;15.9;;
55013;SDS011;40916;51.632;5.552;2022-08-21T06:09:37;6.4;;;16.1;;
55013;SDS011;40916;51.632;5.552;2022-08-21T06:14:37;6;;;9;;
55013;SDS011;40916;51.632;5.552;2022-08-21T06:19:37;5.7;;;11.4;;
55013;SDS011;40916;51.632;5.552;2022-08-21T06:24:36;5.1;;;12.1;;
55013;SDS011;40916;51.632;5.552;2022-08-21T06:29:37;5.5;;;11.8;;
55013;SDS011;40916;51.632;5.552;2022-08-21T06:34:37;4.6;;;12.2;;
55013;SDS011;40916;51.632;5.552;2022-08-21T06:39:36;4.7;;;11.7;;
55013;SDS011;40916;51.632;5.552;2022-08-21T06:44:36;4.4;;;12.6;;
55013;SDS011;40916;51.632;5.552;2022-08-21T06:49:36;5;;;10.4;;
55013;SDS011;40916;51.632;5.552;2022-08-21T06:54:37;4.5;;;9.8;;
55013;SDS011;40916;51.632;5.552;2022-08-21T06:59:36;4.8;;;11;;
55013;SDS011;40916;51.632;5.552;2022-08-21T07:04:36;4.9;;;11.6;;
55013;SDS011;40916;51.632;5.552;2022-08-21T07:09:36;4.9;;;12.6;;
55013;SDS011;40916;51.632;5.552;2022-08-21T07:14:36;5.6;;;18.3;;
55013;SDS011;40916;51.632;5.552;2022-08-21T07:19:36;5.7;;;20.3;;
55013;SDS011;40916;51.632;5.552;2022-08-21T07:24:36;5.7;;;18.9;;
55013;SDS011;40916;51.632;5.552;2022-08-21T07:29:36;5.3;;;15.5;;
55013;SDS011;40916;51.632;5.552;2022-08-21T07:34:36;5.4;;;12.3;;
55013;SDS011;40916;51.632;5.552;2022-08-21T07:39:36;5.2;;;13.5;;
55013;SDS011;40916;51.632;5.552;2022-08-21T07:44:36;5.7;;;13.8;;
55013;SDS011;40916;51.632;5.552;2022-08-21T07:49:36;6.2;;;15.4;;
55013;SDS011;40916;51.632;5.552;2022-08-21T07:54:36;6.3;;;15.9;;
55013;SDS011;40916;51.632;5.552;2022-08-21T07:59:36;6.3;;;11.6;;
55013;SDS011;40916;51.632;5.552;2022-08-21T08:04:36;5.3;;;17.3;;
55013;SDS011;40916;51.632;5.552;2022-08-21T08:09:36;4.7;;;15.6;;
55013;SDS011;40916;51.632;5.552;2022-08-21T08:14:36;4.7;;;12.6;;
55013;SDS011;40916;51.632;5.552;2022-08-21T08:19:36;4.5;;;17.9;;
55013;SDS011;40916;51.632;5.552;2022-08-21T08:24:37;4.4;;;13.7;;
55013;SDS011;40916;51.632;5.552;2022-08-21T08:29:37;5.2;;;15.2;;
55013;SDS011;40916;51.632;5.552;2022-08-21T08:34:37;4.4;;;15.5;;
55013;SDS011;40916;51.632;5.552;2022-08-21T08:39:36;3.8;;;11.5;;
55013;SDS011;40916;51.632;5.552;2022-08-21T08:44:36;3.7;;;15.1;;
55013;SDS011;40916;51.632;5.552;2022-08-21T08:49:37;3.7;;;12;;
55013;SDS011;40916;51.632;5.552;2022-08-21T08:54:37;4.3;;;16.9;;
55013;SDS011;40916;51.632;5.552;2022-08-21T08:59:39;3.7;;;12;;
55013;SDS011;40916;51.632;5.552;2022-08-21T09:04:36;3.7;;;13.8;;
55013;SDS011;40916;51.632;5.552;2022-08-21T09:09:40;3;;;14.2;;
55013;SDS011;40916;51.632;5.552;2022-08-21T09:14:40;3.8;;;11.5;;
55013;SDS011;40916;51.632;5.552;2022-08-21T09:19:39;2.7;;;8.8;;
55013;SDS011;40916;51.632;5.552;2022-08-21T09:24:39;2.9;;;11.3;;
55013;SDS011;40916;51.632;5.552;2022-08-21T09:29:38;2.5;;;8.8;;
55013;SDS011;40916;51.632;5.552;2022-08-21T09:34:36;3.3;;;9.8;;
55013;SDS011;40916;51.632;5.552;2022-08-21T09:39:37;2.7;;;9.7;;
55013;SDS011;40916;51.632;5.552;2022-08-21T09:44:37;3;;;13.3;;
55013;SDS011;40916;51.632;5.552;2022-08-21T09:49:39;3;;;13.2;;
55013;SDS011;40916;51.632;5.552;2022-08-21T09:54:37;3;;;8.1;;
55013;SDS011;40916;51.632;5.552;2022-08-21T09:59:36;1.9;;;8.5;;
55013;SDS011;40916;51.632;5.552;2022-08-21T10:04:36;2.5;;;6.8;;
55013;SDS011;40916;51.632;5.552;2022-08-21T10:09:37;1.6;;;8.8;;
55013;SDS011;40916;51.632;5.552;2022-08-21T10:14:41;1.9;;;5.9;;
55013;SDS011;40916;51.632;5.552;2022-08-21T10:19:38;1.7;;;6.7;;
55013;SDS011;40916;51.632;5.552;2022-08-21T10:24:38;2.5;;;10.7;;
55013;SDS011;40916;51.632;5.552;2022-08-21T10:29:42;2.9;;;8;;
55013;SDS011;40916;51.632;5.552;2022-08-21T10:34:38;1.9;;;5.4;;
55013;SDS011;40916;51.632;5.552;2022-08-21T10:39:37;2.6;;;10;;
55013;SDS011;40916;51.632;5.552;2022-08-21T10:44:37;2.2;;;10.1;;
55013;SDS011;40916;51.632;5.552;2022-08-21T10:49:39;2.7;;;9.7;;
55013;SDS011;40916;51.632;5.552;2022-08-21T10:54:37;2;;;5.1;;
55013;SDS011;40916;51.632;5.552;2022-08-21T10:59:38;2.2;;;7.1;;
55013;SDS011;40916;51.632;5.552;2022-08-21T11:04:37;2.7;;;11.2;;
55013;SDS011;40916;51.632;5.552;2022-08-21T11:09:36;2.1;;;6.1;;
55013;SDS011;40916;51.632;5.552;2022-08-21T11:14:39;2.2;;;7;;
55013;SDS011;40916;51.632;5.552;2022-08-21T11:19:38;2.6;;;9.1;;
55013;SDS011;40916;51.632;5.552;2022-08-21T11:24:38;2.5;;;9;;
55013;SDS011;40916;51.632;5.552;2022-08-21T11:29:38;2.1;;;8;;
55013;SDS011;40916;51.632;5.552;2022-08-21T11:34:39;1.7;;;7.7;;
55013;SDS011;40916;51.632;5.552;2022-08-21T11:39:38;1.6;;;5.7;;
55013;SDS011;40916;51.632;5.552;2022-08-21T11:44:39;1.7;;;6.4;;
55013;SDS011;40916;51.632;5.552;2022-08-21T11:49:43;2.2;;;6.6;;
55013;SDS011;40916;51.632;5.552;2022-08-21T11:54:37;2;;;8.5;;
55013;SDS011;40916;51.632;5.552;2022-08-21T11:59:38;2;;;5.2;;
55013;SDS011;40916;51.632;5.552;2022-08-21T12:04:42;1.8;;;5.9;;
55013;SDS011;40916;51.632;5.552;2022-08-21T12:09:36;2;;;8.2;;
55013;SDS011;40916;51.632;5.552;2022-08-21T12:14:37;1.9;;;9.1;;
55013;SDS011;40916;51.632;5.552;2022-08-21T12:19:36;1.8;;;7.4;;
55013;SDS011;40916;51.632;5.552;2022-08-21T12:24:37;1.9;;;9;;
55013;SDS011;40916;51.632;5.552;2022-08-21T12:29:36;2;;;10.3;;
55013;SDS011;40916;51.632;5.552;2022-08-21T12:34:37;2.3;;;10.2;;
55013;SDS011;40916;51.632;5.552;2022-08-21T12:39:36;2.2;;;6.7;;
55013;SDS011;40916;51.632;5.552;2022-08-21T12:44:38;2.2;;;10.7;;
55013;SDS011;40916;51.632;5.552;2022-08-21T12:49:37;2.3;;;9.5;;
55013;SDS011;40916;51.632;5.552;2022-08-21T12:54:38;2;;;7;;
55013;SDS011;40916;51.632;5.552;2022-08-21T12:59:37;1.8;;;5.5;;
55013;SDS011;40916;51.632;5.552;2022-08-21T13:04:38;1.8;;;6.6;;
55013;SDS011;40916;51.632;5.552;2022-08-21T13:09:38;1.7;;;5.6;;
55013;SDS011;40916;51.632;5.552;2022-08-21T13:14:38;1.9;;;7.2;;
55013;SDS011;40916;51.632;5.552;2022-08-21T13:19:36;1.7;;;6;;
55013;SDS011;40916;51.632;5.552;2022-08-21T13:24:36;1.7;;;6.1;;
55013;SDS011;40916;51.632;5.552;2022-08-21T13:29:36;1.7;;;5.4;;
55013;SDS011;40916;51.632;5.552;2022-08-21T13:34:36;1.5;;;4.5;;
55013;SDS011;40916;51.632;5.552;2022-08-21T13:39:37;2;;;7.4;;
55013;SDS011;40916;51.632;5.552;2022-08-21T13:44:39;1.5;;;6;;
55013;SDS011;40916;51.632;5.552;2022-08-21T13:49:37;2;;;6;;
55013;SDS011;40916;51.632;5.552;2022-08-21T13:54:37;1.8;;;8.1;;
55013;SDS011;40916;51.632;5.552;2022-08-21T13:59:36;2.1;;;6.7;;
55013;SDS011;40916;51.632;5.552;2022-08-21T14:04:37;1.8;;;7.8;;
55013;SDS011;40916;51.632;5.552;2022-08-21T14:09:39;1.8;;;6.5;;
55013;SDS011;40916;51.632;5.552;2022-08-21T14:14:37;2.1;;;8.8;;
55013;SDS011;40916;51.632;5.552;2022-08-21T14:19:37;1.8;;;6.2;;
55013;SDS011;40916;51.632;5.552;2022-08-21T14:24:39;2.1;;;7.8;;
55013;SDS011;40916;51.632;5.552;2022-08-21T14:29:37;2.4;;;10.8;;
55013;SDS011;40916;51.632;5.552;2022-08-21T14:34:36;1.8;;;7;;
55013;SDS011;40916;51.632;5.552;2022-08-21T14:39:36;2;;;6.2;;
55013;SDS011;40916;51.632;5.552;2022-08-21T14:44:36;2.2;;;6.6;;
55013;SDS011;40916;51.632;5.552;2022-08-21T14:49:36;1.7;;;9.3;;
55013;SDS011;40916;51.632;5.552;2022-08-21T14:54:36;2.3;;;7.6;;
55013;SDS011;40916;51.632;5.552;2022-08-21T14:59:40;1.9;;;8.4;;
55013;SDS011;40916;51.632;5.552;2022-08-21T15:04:36;1.9;;;8.1;;
55013;SDS011;40916;51.632;5.552;2022-08-21T15:09:38;2.1;;;9;;
55013;SDS011;40916;51.632;5.552;2022-08-21T15:14:38;1.9;;;6.3;;
55013;SDS011;40916;51.632;5.552;2022-08-21T15:19:36;2.6;;;14.5;;
55013;SDS011;40916;51.632;5.552;2022-08-21T15:24:36;1.9;;;7.6;;
55013;SDS011;40916;51.632;5.552;2022-08-21T15:29:36;1.8;;;7.8;;
55013;SDS011;40916;51.632;5.552;2022-08-21T15:34:36;1.8;;;6.9;;
55013;SDS011;40916;51.632;5.552;2022-08-21T15:39:36;1.8;;;5.2;;
55013;SDS011;40916;51.632;5.552;2022-08-21T15:44:36;1.8;;;5.2;;
55013;SDS011;40916;51.632;5.552;2022-08-21T15:49:36;2.1;;;7.4;;
55013;SDS011;40916;51.632;5.552;2022-08-21T15:54:36;2.2;;;7.2;;
55013;SDS011;40916;51.632;5.552;2022-08-21T15:59:38;1.8;;;7.1;;
55013;SDS011;40916;51.632;5.552;2022-08-21T16:04:36;2.2;;;7.4;;
55013;SDS011;40916;51.632;5.552;2022-08-21T16:09:36;1.6;;;4.4;;
55013;SDS011;40916;51.632;5.552;2022-08-21T16:14:36;2.2;;;7.5;;
55013;SDS011;40916;51.632;5.552;2022-08-21T16:19:36;2;;;6.4;;
55013;SDS011;40916;51.632;5.552;2022-08-21T16:24:36;2.2;;;9.4;;
55013;SDS011;40916;51.632;5.552;2022-08-21T16:29:36;1.9;;;7.3;;
55013;SDS011;40916;51.632;5.552;2022-08-21T16:34:44;2.1;;;8.3;;
55013;SDS011;40916;51.632;5.552;2022-08-21T16:39:36;2.3;;;9.2;;
55013;SDS011;40916;51.632;5.552;2022-08-21T16:44:36;2.1;;;5;;
55013;SDS011;40916;51.632;5.552;2022-08-21T16:49:36;2;;;6.5;;
55013;SDS011;40916;51.632;5.552;2022-08-21T16:54:36;2.4;;;8.6;;
55013;SDS011;40916;51.632;5.552;2022-08-21T16:59:37;2.6;;;7.6;;
55013;SDS011;40916;51.632;5.552;2022-08-21T17:04:36;2.1;;;5.6;;
55013;SDS011;40916;51.632;5.552;2022-08-21T17:09:36;2;;;6.7;;
55013;SDS011;40916;51.632;5.552;2022-08-21T17:14:36;2.5;;;6.8;;
55013;SDS011;40916;51.632;5.552;2022-08-21T17:19:36;1.8;;;6.7;;
55013;SDS011;40916;51.632;5.552;2022-08-21T17:24:36;2.1;;;9.2;;
55013;SDS011;40916;51.632;5.552;2022-08-21T17:29:36;2.1;;;7.2;;
55013;SDS011;40916;51.632;5.552;2022-08-21T17:34:36;1.7;;;6;;
55013;SDS011;40916;51.632;5.552;2022-08-21T17:39:36;2.3;;;7.4;;
55013;SDS011;40916;51.632;5.552;2022-08-21T17:44:36;2.3;;;9.3;;
55013;SDS011;40916;51.632;5.552;2022-08-21T17:49:36;1.6;;;4.2;;
55013;SDS011;40916;51.632;5.552;2022-08-21T17:54:36;1.8;;;5.4;;
55013;SDS011;40916;51.632;5.552;2022-08-21T17:59:36;2.3;;;7.2;;
55013;SDS011;40916;51.632;5.552;2022-08-21T18:04:36;2.4;;;14;;
55013;SDS011;40916;51.632;5.552;2022-08-21T18:09:36;1.9;;;6.5;;
55013;SDS011;40916;51.632;5.552;2022-08-21T18:14:37;2.6;;;7.6;;
55013;SDS011;40916;51.632;5.552;2022-08-21T18:19:36;2.2;;;7.7;;
55013;SDS011;40916;51.632;5.552;2022-08-21T18:24:36;2.1;;;6;;
55013;SDS011;40916;51.632;5.552;2022-08-21T18:29:36;2.1;;;9;;
55013;SDS011;40916;51.632;5.552;2022-08-21T18:34:38;2.1;;;10.2;;
55013;SDS011;40916;51.632;5.552;2022-08-21T18:39:36;2.2;;;6.6;;
55013;SDS011;40916;51.632;5.552;2022-08-21T18:44:36;2.4;;;8;;
55013;SDS011;40916;51.632;5.552;2022-08-21T18:49:36;2.9;;;8.1;;
55013;SDS011;40916;51.632;5.552;2022-08-21T18:54:36;2.1;;;6.1;;
55013;SDS011;40916;51.632;5.552;2022-08-21T18:59:36;2.9;;;11.5;;
55013;SDS011;40916;51.632;5.552;2022-08-21T19:04:36;2.7;;;7.6;;
55013;SDS011;40916;51.632;5.552;2022-08-21T19:09:36;3.6;;;11.6;;
55013;SDS011;40916;51.632;5.552;2022-08-21T19:14:36;2.5;;;9.7;;
55013;SDS011;40916;51.632;5.552;2022-08-21T19:19:36;2.6;;;9.7;;
55013;SDS011;40916;51.632;5.552;2022-08-21T19:24:36;2.6;;;10.4;;
55013;SDS011;40916;51.632;5.552;2022-08-21T19:29:36;2.6;;;7.3;;
55013;SDS011;40916;51.632;5.552;2022-08-21T19:34:36;3;;;8.8;;
55013;SDS011;40916;51.632;5.552;2022-08-21T19:39:36;2.7;;;9.8;;
55013;SDS011;40916;51.632;5.552;2022-08-21T19:44:36;2.9;;;7.4;;
55013;SDS011;40916;51.632;5.552;2022-08-21T19:49:36;2.9;;;10.6;;
55013;SDS011;40916;51.632;5.552;2022-08-21T19:54:36;3.2;;;10;;
55013;SDS011;40916;51.632;5.552;2022-08-21T19:59:36;3;;;7.8;;
55013;SDS011;40916;51.632;5.552;2022-08-21T20:04:36;3.1;;;7.8;;
55013;SDS011;40916;51.632;5.552;2022-08-21T20:09:36;3;;;11;;
55013;SDS011;40916;51.632;5.552;2022-08-21T20:14:37;2.8;;;8.5;;
55013;SDS011;40916;51.632;5.552;2022-08-21T20:19:36;3.5;;;13.1;;
55013;SDS011;40916;51.632;5.552;2022-08-21T20:24:36;3.2;;;9.2;;
55013;SDS011;40916;51.632;5.552;2022-08-21T20:29:36;3;;;6.9;;
55013;SDS011;40916;51.632;5.552;2022-08-21T20:34:36;3.1;;;8.4;;
55013;SDS011;40916;51.632;5.552;2022-08-21T20:39:36;3.5;;;8.3;;
55013;SDS011;40916;51.632;5.552;2022-08-21T20:44:36;3.5;;;9.2;;
55013;SDS011;40916;51.632;5.552;2022-08-21T20:49:37;3.6;;;9.7;;
55013;SDS011;40916;51.632;5.552;2022-08-21T20:54:37;3.5;;;12.8;;
55013;SDS011;40916;51.632;5.552;2022-08-21T20:59:39;3.2;;;12.4;;
55013;SDS011;40916;51.632;5.552;2022-08-21T21:04:36;3.7;;;9.1;;
55013;SDS011;40916;51.632;5.552;2022-08-21T21:09:37;3.9;;;9.9;;
55013;SDS011;40916;51.632;5.552;2022-08-21T21:14:38;3.7;;;9.8;;
55013;SDS011;40916;51.632;5.552;2022-08-21T21:19:36;4.2;;;14.6;;
55013;SDS011;40916;51.632;5.552;2022-08-21T21:24:36;4.4;;;12.7;;
55013;SDS011;40916;51.632;5.552;2022-08-21T21:29:38;3.8;;;9.8;;
55013;SDS011;40916;51.632;5.552;2022-08-21T21:34:36;4.2;;;9.5;;
55013;SDS011;40916;51.632;5.552;2022-08-21T21:39:40;3.8;;;9.1;;
55013;SDS011;40916;51.632;5.552;2022-08-21T21:44:40;4.4;;;18;;
55013;SDS011;40916;51.632;5.552;2022-08-21T21:49:47;3.9;;;11.5;;
55013;SDS011;40916;51.632;5.552;2022-08-21T21:54:45;5.2;;;11.1;;
55013;SDS011;40916;51.632;5.552;2022-08-21T21:59:40;5.4;;;13.3;;
55013;SDS011;40916;51.632;5.552;2022-08-21T22:04:45;4.3;;;8.6;;
55013;SDS011;40916;51.632;5.552;2022-08-21T22:09:37;5.2;;;12.1;;
55013;SDS011;40916;51.632;5.552;2022-08-21T22:14:38;4.1;;;12.4;;
55013;SDS011;40916;51.632;5.552;2022-08-21T22:19:37;3.9;;;10.6;;
55013;SDS011;40916;51.632;5.552;2022-08-21T22:24:36;4.7;;;11.1;;
55013;SDS011;40916;51.632;5.552;2022-08-21T22:29:43;5.6;;;17.2;;
55013;SDS011;40916;51.632;5.552;2022-08-21T22:34:35;4;;;8.9;;
55013;SDS011;40916;51.632;5.552;2022-08-21T22:39:37;4.4;;;11;;
55013;SDS011;40916;51.632;5.552;2022-08-21T22:44:45;4.4;;;10.2;;
55013;SDS011;40916;51.632;5.552;2022-08-21T22:49:38;4.8;;;8.1;;
55013;SDS011;40916;51.632;5.552;2022-08-21T22:54:36;4.4;;;8.4;;
55013;SDS011;40916;51.632;5.552;2022-08-21T22:59:38;4.9;;;11.2;;
55013;SDS011;40916;51.632;5.552;2022-08-21T23:04:39;5;;;11.6;;
55013;SDS011;40916;51.632;5.552;2022-08-21T23:09:37;4.5;;;11.9;;
55013;SDS011;40916;51.632;5.552;2022-08-21T23:14:35;4.3;;;8.8;;
55013;SDS011;40916;51.632;5.552;2022-08-21T23:19:39;4.4;;;10.8;;
55013;SDS011;40916;51.632;5.552;2022-08-21T23:24:41;4.8;;;10.9;;
55013;SDS011;40916;51.632;5.552;2022-08-21T23:29:37;4.7;;;11;;
55013;SDS011;40916;51.632;5.552;2022-08-21T23:34:40;4.6;;;9;;
55013;SDS011;40916;51.632;5.552;2022-08-21T23:39:41;6.2;;;16.6;;
55013;SDS011;40916;51.632;5.552;2022-08-21T23:44:39;4.8;;;15;;
55013;SDS011;40916;51.632;5.552;2022-08-21T23:49:41;5.7;;;9.1;;
55013;SDS011;40916;51.632;5.552;2022-08-21T23:54:39;5.6;;;10;;
55013;SDS011;40916;51.632;5.552;2022-08-21T23:59:39;5;;;11.3;;
